createdAt,value
2022-11-30T00:01:30.363Z,22.55
2022-11-30T00:03:57.983Z,22.58
2022-11-30T00:06:26.032Z,21.23
2022-11-30T00:08:57.427Z,21.27
2022-11-30T00:11:26.740Z,20.63
2022-11-30T00:13:54.010Z,20.30
2022-11-30T00:16:21.670Z,19.33
2022-11-30T00:18:49.203Z,21.05
2022-11-30T00:21:16.509Z,20.48
2022-11-30T00:23:45.188Z,20.85
2022-11-30T00:26:15.242Z,20.17
2022-11-30T00:31:14.471Z,20.00
2022-11-30T00:33:42.013Z,18.75
2022-11-30T00:36:12.478Z,20.98
2022-11-30T00:38:39.908Z,20.05
2022-11-30T00:41:07.243Z,19.92
2022-11-30T00:43:34.657Z,20.05
2022-11-30T00:46:02.024Z,19.27
2022-11-30T00:48:29.372Z,19.85
2022-11-30T00:50:56.866Z,20.30
2022-11-30T00:53:24.062Z,19.95
2022-11-30T00:55:51.290Z,21.92
2022-11-30T00:58:18.767Z,21.45
2022-11-30T01:00:46.179Z,21.52
2022-11-30T01:03:13.960Z,21.60
2022-11-30T01:05:42.039Z,21.45
2022-11-30T01:08:10.799Z,22.15
2022-11-30T01:10:39.898Z,23.95
2022-11-30T01:13:07.652Z,22.20
2022-11-30T01:15:40.144Z,22.75
2022-11-30T01:18:07.576Z,23.33
2022-11-30T01:20:35.103Z,22.55
2022-11-30T01:23:02.459Z,22.52
2022-11-30T01:25:29.720Z,21.88
2022-11-30T01:27:56.942Z,22.50
2022-11-30T01:30:24.311Z,21.42
2022-11-30T01:32:51.473Z,21.80
2022-11-30T01:35:18.667Z,22.83
2022-11-30T01:37:47.290Z,21.90
2022-11-30T01:40:14.592Z,21.40
2022-11-30T01:42:46.229Z,21.55
2022-11-30T01:45:14.383Z,22.70
2022-11-30T01:47:44.958Z,21.90
2022-11-30T01:50:20.865Z,22.55
2022-11-30T01:52:51.244Z,22.20
2022-11-30T01:55:29.912Z,23.27
2022-11-30T01:58:15.309Z,21.40
2022-11-30T02:00:46.299Z,23.58
2022-11-30T02:03:24.864Z,23.60
2022-11-30T02:05:52.231Z,23.83
2022-11-30T02:08:19.788Z,23.25
2022-11-30T02:10:53.906Z,23.63
2022-11-30T02:13:31.320Z,22.02
2022-11-30T02:15:58.674Z,23.30
2022-11-30T02:18:32.278Z,23.08
2022-11-30T02:21:14.420Z,22.52
2022-11-30T02:23:55.157Z,21.92
2022-11-30T02:26:30.318Z,22.55
2022-11-30T02:29:14.311Z,20.10
2022-11-30T02:31:49.452Z,21.65
2022-11-30T02:34:17.754Z,22.75
2022-11-30T02:36:46.251Z,21.15
2022-11-30T02:39:13.549Z,21.10
2022-11-30T02:41:41.529Z,15.40
2022-11-30T02:44:10.495Z,15.63
2022-11-30T02:47:05.587Z,16.05
2022-11-30T02:49:55.371Z,17.63
2022-11-30T02:52:25.316Z,15.50
2022-11-30T02:54:54.064Z,15.10
2022-11-30T02:57:21.246Z,14.75
2022-11-30T02:59:48.661Z,15.73
2022-11-30T03:02:16.033Z,14.98
2022-11-30T03:04:43.397Z,14.15
2022-11-30T03:07:10.742Z,12.25
2022-11-30T03:09:38.000Z,10.80
2022-11-30T03:12:05.518Z,11.65
2022-11-30T03:14:32.839Z,12.30
2022-11-30T03:17:00.125Z,12.60
2022-11-30T03:19:27.367Z,13.65
2022-11-30T03:21:54.783Z,13.35
2022-11-30T03:24:24.388Z,14.57
2022-11-30T03:26:52.196Z,14.43
2022-11-30T03:29:19.428Z,13.90
2022-11-30T03:31:46.658Z,13.75
2022-11-30T03:34:14.140Z,13.82
2022-11-30T03:36:41.404Z,12.20
2022-11-30T03:39:09.489Z,10.85
2022-11-30T03:41:36.869Z,9.77
2022-11-30T03:44:04.239Z,12.27
2022-11-30T03:46:31.597Z,11.32
2022-11-30T03:48:58.949Z,11.82
2022-11-30T03:51:26.127Z,14.35
2022-11-30T03:53:53.331Z,13.95
2022-11-30T03:56:20.650Z,13.68
2022-11-30T03:58:47.876Z,14.75
2022-11-30T04:01:17.184Z,15.57
2022-11-30T04:03:44.785Z,15.75
2022-11-30T04:06:13.038Z,14.20
2022-11-30T04:08:40.578Z,14.95
2022-11-30T04:11:08.517Z,14.98
2022-11-30T04:13:36.918Z,14.77
2022-11-30T04:16:04.811Z,12.43
2022-11-30T04:18:33.520Z,13.30
2022-11-30T04:21:01.432Z,13.43
2022-11-30T04:23:34.858Z,12.95
2022-11-30T04:26:07.506Z,12.35
2022-11-30T04:28:35.338Z,12.50
2022-11-30T04:31:03.011Z,12.27
2022-11-30T04:33:30.703Z,12.20
2022-11-30T04:36:00.410Z,11.48
2022-11-30T04:38:28.242Z,10.25
2022-11-30T04:40:56.127Z,10.73
2022-11-30T04:43:23.963Z,10.23
2022-11-30T04:45:51.515Z,10.65
2022-11-30T04:48:19.138Z,10.35
2022-11-30T04:50:46.387Z,10.88
2022-11-30T04:53:13.675Z,10.00
2022-11-30T04:55:41.225Z,9.82
2022-11-30T04:58:08.504Z,9.05
2022-11-30T05:00:36.625Z,8.57
2022-11-30T05:03:03.883Z,9.20
2022-11-30T05:05:31.194Z,8.50
2022-11-30T05:07:59.379Z,8.90
2022-11-30T05:10:28.156Z,11.25
2022-11-30T05:12:56.373Z,11.35
2022-11-30T05:15:23.705Z,10.18
2022-11-30T05:17:51.106Z,10.98
2022-11-30T05:20:18.395Z,9.48
2022-11-30T05:22:45.590Z,11.15
2022-11-30T05:25:12.832Z,10.73
2022-11-30T05:27:40.099Z,10.25
2022-11-30T05:30:08.091Z,9.55
2022-11-30T05:32:35.527Z,9.05
2022-11-30T05:35:02.817Z,8.75
2022-11-30T05:37:30.265Z,7.72
2022-11-30T05:39:57.456Z,8.35
2022-11-30T05:42:24.979Z,8.20
2022-11-30T05:44:52.285Z,7.60
2022-11-30T05:47:19.670Z,7.18
2022-11-30T05:49:46.878Z,6.45
2022-11-30T05:52:14.148Z,6.78
2022-11-30T05:54:41.356Z,6.88
2022-11-30T05:57:08.724Z,7.28
2022-11-30T05:59:35.880Z,7.38
2022-11-30T06:02:03.179Z,7.43
2022-11-30T06:04:30.598Z,7.00
2022-11-30T06:06:57.824Z,6.78
2022-11-30T06:09:25.200Z,7.65
2022-11-30T06:11:52.372Z,7.88
2022-11-30T06:14:19.603Z,8.20
2022-11-30T06:16:46.978Z,8.48
2022-11-30T06:19:14.204Z,8.40
2022-11-30T06:21:41.493Z,8.43
2022-11-30T06:24:10.045Z,8.32
2022-11-30T06:26:37.337Z,8.40
2022-11-30T06:29:04.578Z,8.25
2022-11-30T06:31:32.044Z,8.55
2022-11-30T06:33:59.632Z,9.50
2022-11-30T06:36:31.291Z,9.20
2022-11-30T06:39:01.543Z,9.18
2022-11-30T06:41:28.803Z,9.18
2022-11-30T06:43:56.029Z,9.07
2022-11-30T06:46:23.916Z,9.35
2022-11-30T06:48:51.257Z,9.63
2022-11-30T06:51:19.215Z,9.90
2022-11-30T06:53:46.835Z,9.88
2022-11-30T06:56:14.089Z,10.55
2022-11-30T06:58:42.031Z,9.27
2022-11-30T07:01:12.443Z,9.93
2022-11-30T07:03:40.543Z,10.20
2022-11-30T07:06:12.694Z,9.65
2022-11-30T07:08:40.781Z,10.32
2022-11-30T07:11:09.183Z,11.52
2022-11-30T07:13:37.262Z,11.10
2022-11-30T07:16:05.998Z,11.48
2022-11-30T07:18:33.818Z,10.88
2022-11-30T07:21:02.487Z,11.48
2022-11-30T07:23:55.797Z,11.25
2022-11-30T07:26:24.695Z,12.43
2022-11-30T07:28:57.925Z,12.15
2022-11-30T07:31:35.825Z,12.05
2022-11-30T07:34:05.683Z,12.20
2022-11-30T07:36:33.136Z,12.52
2022-11-30T07:39:00.446Z,13.23
2022-11-30T07:41:27.737Z,13.18
2022-11-30T07:43:55.056Z,13.10
2022-11-30T07:46:22.320Z,13.80
2022-11-30T07:48:49.764Z,15.57
2022-11-30T07:51:19.855Z,18.23
2022-11-30T07:56:19.676Z,14.45
2022-11-30T07:58:47.920Z,13.63
2022-11-30T08:01:21.945Z,13.75
2022-11-30T08:03:50.668Z,13.88
2022-11-30T08:06:25.912Z,14.32
2022-11-30T08:08:55.202Z,14.18
2022-11-30T08:11:26.412Z,15.00
2022-11-30T08:13:54.257Z,12.75
2022-11-30T08:16:24.077Z,13.07
2022-11-30T08:18:51.452Z,13.95
2022-11-30T08:21:21.188Z,13.15
2022-11-30T08:23:53.878Z,13.15
2022-11-30T08:26:23.360Z,13.38
2022-11-30T08:28:51.431Z,14.73
2022-11-30T08:31:21.925Z,13.43
2022-11-30T08:33:49.915Z,13.93
2022-11-30T08:36:19.806Z,14.52
2022-11-30T08:38:48.089Z,15.07
2022-11-30T08:41:21.258Z,15.30
2022-11-30T08:43:50.025Z,15.52
2022-11-30T08:46:49.626Z,14.95
2022-11-30T08:49:23.458Z,14.13
2022-11-30T08:52:17.134Z,15.15
2022-11-30T08:57:33.455Z,15.25
2022-11-30T09:00:00.706Z,15.25
2022-11-30T09:02:27.939Z,15.60
2022-11-30T09:04:55.411Z,14.52
2022-11-30T09:07:22.787Z,14.18
2022-11-30T09:09:50.100Z,15.55
2022-11-30T09:12:17.361Z,15.48
2022-11-30T09:14:45.864Z,15.98
2022-11-30T09:17:14.221Z,16.83
2022-11-30T09:19:41.511Z,16.10
2022-11-30T09:22:10.094Z,18.20
2022-11-30T09:24:38.284Z,15.63
2022-11-30T09:27:05.510Z,15.48
2022-11-30T09:29:32.736Z,15.35
2022-11-30T09:32:00.445Z,16.05
2022-11-30T09:34:27.707Z,15.13
2022-11-30T09:36:55.430Z,15.90
2022-11-30T09:39:22.757Z,16.08
2022-11-30T09:42:08.324Z,16.10
2022-11-30T09:44:38.181Z,16.77
2022-11-30T09:47:08.631Z,16.70
2022-11-30T09:49:39.425Z,15.35
2022-11-30T09:52:12.977Z,15.10
2022-11-30T09:54:42.703Z,23.38
2022-11-30T09:57:35.205Z,18.90
2022-11-30T10:00:06.309Z,16.10
2022-11-30T10:02:40.045Z,15.77
2022-11-30T10:05:26.055Z,15.60
2022-11-30T10:08:04.937Z,15.63
2022-11-30T10:10:53.676Z,16.77
2022-11-30T10:14:05.347Z,16.45
2022-11-30T10:16:58.342Z,17.15
2022-11-30T10:19:51.594Z,18.48
2022-11-30T10:23:02.706Z,17.25
2022-11-30T10:25:54.550Z,17.00
2022-11-30T10:28:51.121Z,17.67
2022-11-30T10:31:20.919Z,17.27
2022-11-30T10:33:51.315Z,18.10
2022-11-30T10:36:29.335Z,19.70
2022-11-30T10:39:00.146Z,20.65
2022-11-30T10:41:47.485Z,19.33
2022-11-30T10:44:34.581Z,17.83
2022-11-30T10:47:03.320Z,17.25
2022-11-30T10:49:32.182Z,19.58
2022-11-30T10:52:03.844Z,17.02
2022-11-30T10:54:31.867Z,19.10
2022-11-30T10:57:01.832Z,19.17
2022-11-30T11:02:35.433Z,17.55
2022-11-30T11:05:15.073Z,18.02
2022-11-30T11:07:55.247Z,18.65
2022-11-30T11:12:55.906Z,17.90
2022-11-30T11:15:29.172Z,20.48
2022-11-30T11:18:21.322Z,25.25
2022-11-30T11:20:49.500Z,19.08
2022-11-30T11:23:28.750Z,18.98
2022-11-30T11:25:57.701Z,19.35
2022-11-30T11:28:25.470Z,19.00
2022-11-30T11:30:55.072Z,19.45
2022-11-30T11:33:25.015Z,19.70
2022-11-30T11:36:12.910Z,23.05
2022-11-30T11:38:46.077Z,20.67
2022-11-30T11:41:20.532Z,18.10
2022-11-30T11:44:22.735Z,18.05
2022-11-30T11:47:07.570Z,21.00
2022-11-30T11:49:36.686Z,20.92
2022-11-30T11:52:07.077Z,19.53
2022-11-30T11:54:49.693Z,18.15
2022-11-30T11:57:18.862Z,18.42
2022-11-30T12:00:01.295Z,19.27
2022-11-30T12:03:09.012Z,20.63
2022-11-30T12:05:36.136Z,20.27
2022-11-30T12:08:14.422Z,20.70
2022-11-30T12:10:52.263Z,17.63
2022-11-30T12:13:33.109Z,18.42
2022-11-30T12:16:15.598Z,19.38
2022-11-30T12:18:50.940Z,21.40
2022-11-30T12:21:27.199Z,20.63
2022-11-30T12:24:21.232Z,20.60
2022-11-30T12:27:02.536Z,22.92
2022-11-30T12:29:29.875Z,24.25
2022-11-30T12:32:17.411Z,19.63
2022-11-30T12:35:06.750Z,18.80
2022-11-30T12:37:47.857Z,18.60
2022-11-30T12:40:58.820Z,17.67
2022-11-30T12:43:45.829Z,17.25
2022-11-30T12:46:18.568Z,17.50
2022-11-30T12:48:45.900Z,17.25
2022-11-30T12:51:50.300Z,18.00
2022-11-30T12:54:22.831Z,19.95
2022-11-30T12:57:15.908Z,20.25
2022-11-30T13:00:21.803Z,19.58
2022-11-30T13:02:52.346Z,18.80
2022-11-30T13:05:24.791Z,18.17
2022-11-30T13:07:58.585Z,19.40
2022-11-30T13:10:31.889Z,18.08
2022-11-30T13:13:00.531Z,16.80
2022-11-30T13:15:30.952Z,16.77
2022-11-30T13:17:58.479Z,17.67
2022-11-30T13:20:39.600Z,17.85
2022-11-30T13:23:32.043Z,16.83
2022-11-30T13:26:27.245Z,16.38
2022-11-30T13:29:36.657Z,16.73
2022-11-30T13:32:27.526Z,16.98
2022-11-30T13:35:29.613Z,16.15
2022-11-30T13:41:07.802Z,19.23
2022-11-30T13:43:40.092Z,18.13
2022-11-30T13:46:19.542Z,15.80
2022-11-30T13:48:47.927Z,18.20
2022-11-30T13:51:36.429Z,17.60
2022-11-30T13:54:38.503Z,18.85
2022-11-30T13:57:38.063Z,18.67
2022-11-30T14:00:30.077Z,19.15
2022-11-30T14:03:18.292Z,17.98
2022-11-30T14:05:55.873Z,18.83
2022-11-30T14:08:24.380Z,18.50
2022-11-30T14:10:55.794Z,19.40
2022-11-30T14:13:31.220Z,17.58
2022-11-30T14:16:00.707Z,18.30
2022-11-30T14:18:48.210Z,18.52
2022-11-30T14:21:17.688Z,16.58
2022-11-30T14:24:21.197Z,15.32
2022-11-30T14:26:50.533Z,12.48
2022-11-30T14:29:20.488Z,11.47
2022-11-30T14:31:47.808Z,12.13
2022-11-30T14:34:20.140Z,13.00
2022-11-30T14:36:51.454Z,13.52
2022-11-30T14:39:42.605Z,15.75
2022-11-30T14:42:36.340Z,18.27
2022-11-30T14:45:04.100Z,18.70
2022-11-30T14:47:34.268Z,20.05
2022-11-30T14:52:57.670Z,20.83
2022-11-30T14:55:46.211Z,20.73
2022-11-30T14:58:32.588Z,20.73
2022-11-30T15:00:59.921Z,19.17
2022-11-30T15:03:32.645Z,19.38
2022-11-30T15:06:04.792Z,18.60
2022-11-30T15:08:42.212Z,18.77
2022-11-30T15:11:12.266Z,16.70
2022-11-30T15:13:49.635Z,18.00
2022-11-30T15:16:20.464Z,18.85
2022-11-30T15:18:48.969Z,18.15
2022-11-30T15:21:23.927Z,18.25
2022-11-30T15:23:52.973Z,17.98
2022-11-30T15:26:38.277Z,17.13
2022-11-30T15:29:38.934Z,17.88
2022-11-30T15:32:08.367Z,18.35
2022-11-30T15:34:56.604Z,18.42
2022-11-30T15:37:32.059Z,16.50
2022-11-30T15:40:02.157Z,16.85
2022-11-30T15:42:39.571Z,17.73
2022-11-30T15:45:19.059Z,18.02
2022-11-30T15:47:46.719Z,17.05
2022-11-30T15:50:37.933Z,18.83
2022-11-30T15:53:25.684Z,17.52
2022-11-30T15:55:56.131Z,18.20
2022-11-30T15:58:45.281Z,16.73
2022-11-30T16:01:22.800Z,18.45
2022-11-30T16:03:56.243Z,17.42
2022-11-30T16:06:44.208Z,18.20
2022-11-30T16:09:43.773Z,18.77
2022-11-30T16:12:22.932Z,19.23
2022-11-30T16:14:50.272Z,19.27
2022-11-30T16:17:17.564Z,20.63
2022-11-30T16:19:45.471Z,19.92
2022-11-30T16:22:13.994Z,20.25
2022-11-30T16:24:41.544Z,20.38
2022-11-30T16:27:19.391Z,20.67
2022-11-30T16:29:52.042Z,20.55
2022-11-30T16:32:19.786Z,20.75
2022-11-30T16:34:48.013Z,23.33
2022-11-30T16:37:15.817Z,23.60
2022-11-30T16:39:43.312Z,24.85
2022-11-30T16:42:12.590Z,23.25
2022-11-30T16:44:39.780Z,22.45
2022-11-30T16:47:07.225Z,24.35
2022-11-30T16:49:34.395Z,24.60
2022-11-30T16:52:01.848Z,24.15
2022-11-30T16:54:29.057Z,23.80
2022-11-30T16:56:56.255Z,25.25
2022-11-30T16:59:23.516Z,24.52
2022-11-30T17:01:53.939Z,24.58
2022-11-30T17:04:24.019Z,24.33
2022-11-30T17:09:23.366Z,24.05
2022-11-30T17:11:51.425Z,23.05
2022-11-30T17:14:19.693Z,23.08
2022-11-30T17:16:46.998Z,21.58
2022-11-30T17:19:14.584Z,22.02
2022-11-30T17:21:42.977Z,23.20
2022-11-30T17:24:10.526Z,22.45
2022-11-30T17:26:37.823Z,23.83
2022-11-30T17:29:05.050Z,23.13
2022-11-30T17:31:32.531Z,23.40
2022-11-30T17:34:00.567Z,24.35
2022-11-30T17:36:29.424Z,22.58
2022-11-30T17:38:57.642Z,23.33
2022-11-30T17:41:24.855Z,23.10
2022-11-30T17:43:52.218Z,23.95
2022-11-30T17:46:20.991Z,22.40
2022-11-30T17:48:49.648Z,23.05
2022-11-30T17:51:17.265Z,24.25
2022-11-30T17:53:44.683Z,23.85
2022-11-30T17:56:14.517Z,23.75
2022-11-30T17:58:44.456Z,25.45
2022-11-30T18:01:38.386Z,23.20
2022-11-30T18:04:05.956Z,23.70
2022-11-30T18:06:35.712Z,23.50
2022-11-30T18:09:03.003Z,24.10
2022-11-30T18:11:30.305Z,24.50
2022-11-30T18:14:00.366Z,24.45
2022-11-30T18:16:30.882Z,22.88
2022-11-30T18:18:59.371Z,23.05
2022-11-30T18:21:29.459Z,23.80
2022-11-30T18:26:25.582Z,23.45
2022-11-30T18:28:57.971Z,24.10
2022-11-30T18:31:26.149Z,25.77
2022-11-30T18:34:02.533Z,24.80
2022-11-30T18:36:30.057Z,24.92
2022-11-30T18:38:57.366Z,26.45
2022-11-30T18:41:26.256Z,26.88
2022-11-30T18:43:53.796Z,26.92
2022-11-30T18:46:21.443Z,26.65
2022-11-30T18:48:50.451Z,27.90
2022-11-30T18:51:20.343Z,25.05
2022-11-30T18:53:47.794Z,26.10
2022-11-30T18:56:17.872Z,25.85
2022-11-30T19:01:16.889Z,25.92
2022-11-30T19:03:50.730Z,26.48
2022-11-30T19:06:18.314Z,24.70
2022-11-30T19:08:47.636Z,26.38
2022-11-30T19:11:15.866Z,25.33
2022-11-30T19:13:43.848Z,26.08
2022-11-30T19:16:13.909Z,27.10
2022-11-30T19:18:41.355Z,30.27
2022-11-30T19:21:13.544Z,27.33
2022-11-30T19:23:40.911Z,27.73
2022-11-30T19:26:10.163Z,28.15
2022-11-30T19:28:38.685Z,27.67
2022-11-30T19:31:10.870Z,27.77
2022-11-30T19:33:39.649Z,29.40
2022-11-30T19:36:09.825Z,27.48
2022-11-30T19:41:08.451Z,27.27
2022-11-30T19:43:36.199Z,27.23
2022-11-30T19:46:08.446Z,27.20
2022-11-30T19:48:36.205Z,28.13
2022-11-30T19:51:10.961Z,29.75
2022-11-30T19:53:43.686Z,28.20
2022-11-30T19:58:39.814Z,26.88
2022-11-30T20:01:12.092Z,27.08
2022-11-30T20:03:39.517Z,25.45
2022-11-30T20:06:06.997Z,25.38
2022-11-30T20:08:34.288Z,24.80
2022-11-30T20:11:06.051Z,25.35
2022-11-30T20:13:33.266Z,27.80
2022-11-30T20:16:07.225Z,26.50
2022-11-30T20:18:34.861Z,26.55
2022-11-30T20:21:13.697Z,26.90
2022-11-30T20:23:41.860Z,28.70
2022-11-30T20:26:24.432Z,28.58
2022-11-30T20:28:52.694Z,28.80
2022-11-30T20:31:21.473Z,31.52
2022-11-30T20:33:49.464Z,32.67
2022-11-30T20:36:18.664Z,30.33
2022-11-30T20:38:46.438Z,32.87
2022-11-30T20:41:19.128Z,33.05
2022-11-30T20:43:46.748Z,31.75
2022-11-30T20:46:17.938Z,31.60
2022-11-30T20:48:45.659Z,32.10
2022-11-30T20:51:30.188Z,33.50
2022-11-30T20:54:06.826Z,33.03
2022-11-30T20:56:36.774Z,33.65
2022-11-30T20:59:06.724Z,32.85
2022-11-30T21:01:34.877Z,33.50
2022-11-30T21:04:02.235Z,35.13
2022-11-30T21:06:30.439Z,34.22
2022-11-30T21:08:58.097Z,33.05
2022-11-30T21:11:28.907Z,32.15
2022-11-30T21:13:56.959Z,33.85
2022-11-30T21:16:28.449Z,33.38
2022-11-30T21:19:00.226Z,35.00
2022-11-30T21:21:30.747Z,33.70
2022-11-30T21:24:02.728Z,33.83
2022-11-30T21:26:36.882Z,34.35
2022-11-30T21:29:14.129Z,33.88
2022-11-30T21:31:41.587Z,34.85
2022-11-30T21:34:08.932Z,32.50
2022-11-30T21:36:36.259Z,35.13
2022-11-30T21:39:06.632Z,34.92
2022-11-30T21:41:36.244Z,34.53
2022-11-30T21:44:04.412Z,33.37
2022-11-30T21:46:32.009Z,34.75
2022-11-30T21:48:59.320Z,34.38
2022-11-30T21:51:28.311Z,33.40
2022-11-30T21:53:58.817Z,34.25
2022-11-30T21:56:28.455Z,33.72
2022-11-30T21:58:56.724Z,35.13
2022-11-30T22:01:35.736Z,34.95
2022-11-30T22:04:04.890Z,35.35
2022-11-30T22:06:33.905Z,34.67
2022-11-30T22:09:03.220Z,37.70
2022-11-30T22:11:31.012Z,36.28
2022-11-30T22:13:58.460Z,35.00
2022-11-30T22:16:32.497Z,34.40
2022-11-30T22:19:03.176Z,34.35
2022-11-30T22:21:31.068Z,34.38
2022-11-30T22:24:06.747Z,34.97
2022-11-30T22:26:36.428Z,35.08
2022-11-30T22:29:05.659Z,33.60
2022-11-30T22:31:35.404Z,33.60
2022-11-30T22:34:03.062Z,33.08
2022-11-30T22:36:31.708Z,34.08
2022-11-30T22:39:00.926Z,32.08
2022-11-30T22:41:28.851Z,32.58
2022-11-30T22:43:57.019Z,31.95
2022-11-30T22:46:26.619Z,33.13
2022-11-30T22:48:54.474Z,33.78
2022-11-30T22:51:23.633Z,32.15
2022-11-30T22:53:52.073Z,33.67
2022-11-30T22:56:22.036Z,35.10
2022-11-30T22:58:51.039Z,32.38
2022-11-30T23:01:20.797Z,33.85
2022-11-30T23:03:49.196Z,33.20
2022-11-30T23:06:17.850Z,34.08
2022-11-30T23:08:46.151Z,32.92
2022-11-30T23:11:16.014Z,31.08
2022-11-30T23:13:43.746Z,35.28
2022-11-30T23:16:13.052Z,34.75
2022-11-30T23:18:45.821Z,32.75
2022-11-30T23:21:15.167Z,32.33
2022-11-30T23:23:43.751Z,33.63
2022-11-30T23:26:16.262Z,33.47
2022-11-30T23:28:44.957Z,33.63
2022-11-30T23:31:34.652Z,31.90
2022-11-30T23:34:12.404Z,33.97
2022-11-30T23:36:39.674Z,32.20
2022-11-30T23:39:11.555Z,33.83
2022-11-30T23:41:39.182Z,32.85
2022-11-30T23:44:07.335Z,33.05
2022-11-30T23:46:34.827Z,33.15
2022-11-30T23:49:02.588Z,31.38
2022-11-30T23:51:29.958Z,32.67
2022-11-30T23:53:57.124Z,33.25
2022-11-30T23:56:24.583Z,34.05
2022-11-30T23:58:52.333Z,33.72
